createdAt,value
2023-01-22T00:00:33.648Z,-0.08
2023-01-22T00:37:41.438Z,-0.30
2023-01-22T00:38:44.216Z,-0.20
2023-01-22T00:39:46.491Z,-0.17
2023-01-22T00:40:48.837Z,-0.13
2023-01-22T00:41:51.030Z,-0.11
2023-01-22T00:42:53.380Z,-0.17
2023-01-22T00:43:55.802Z,-0.12
2023-01-22T00:44:59.725Z,-0.05
2023-01-22T00:46:01.921Z,-0.17
2023-01-22T00:47:04.304Z,-0.15
2023-01-22T00:48:06.586Z,-0.10
2023-01-22T00:49:08.810Z,0.06
2023-01-22T00:50:11.486Z,-0.09
2023-01-22T00:51:15.497Z,0.01
2023-01-22T00:52:17.868Z,-0.14
2023-01-22T00:53:20.166Z,-0.07
2023-01-22T00:54:22.468Z,-0.06
2023-01-22T00:55:24.762Z,0.02
2023-01-22T00:56:28.184Z,0.01
2023-01-22T00:57:30.424Z,-0.03
2023-01-22T00:58:34.450Z,0.11
2023-01-22T00:59:36.924Z,0.15
2023-01-22T01:00:39.157Z,0.09
2023-01-22T01:01:41.484Z,0.01
2023-01-22T01:03:02.348Z,0.03
2023-01-22T01:04:06.985Z,-0.07
2023-01-22T01:05:09.311Z,0.03
2023-01-22T01:06:19.979Z,0.03
2023-01-22T01:07:22.623Z,0.22
2023-01-22T01:08:26.236Z,0.22
2023-01-22T01:09:28.462Z,0.21
2023-01-22T01:10:30.756Z,0.12
2023-01-22T01:11:34.123Z,0.20
2023-01-22T01:12:38.318Z,0.17
2023-01-22T01:13:43.025Z,0.24
2023-01-22T01:14:45.449Z,0.21
2023-01-22T01:15:47.811Z,0.27
2023-01-22T01:16:50.966Z,0.24
2023-01-22T01:17:53.265Z,0.09
2023-01-22T01:19:04.294Z,-0.02
2023-01-22T01:20:07.239Z,0.11
2023-01-22T01:21:10.559Z,0.15
2023-01-22T01:22:12.749Z,0.00
2023-01-22T01:23:15.017Z,0.18
2023-01-22T01:24:17.322Z,0.14
2023-01-22T01:25:19.790Z,0.07
2023-01-22T01:26:22.226Z,0.18
2023-01-22T01:27:24.486Z,0.16
2023-01-22T01:28:28.723Z,0.20
2023-01-22T01:29:30.983Z,0.14
2023-01-22T01:30:33.961Z,0.11
2023-01-22T01:31:37.373Z,0.10
2023-01-22T01:32:39.695Z,0.03
2023-01-22T01:33:42.613Z,0.28
2023-01-22T01:34:45.637Z,0.20
2023-01-22T01:35:47.882Z,0.11
2023-01-22T01:36:50.228Z,0.02
2023-01-22T01:37:53.768Z,0.03
2023-01-22T01:38:56.378Z,-0.09
2023-01-22T01:39:58.820Z,0.04
2023-01-22T01:41:01.443Z,0.07
2023-01-22T01:42:03.723Z,-0.07
2023-01-22T01:43:05.957Z,-0.07
2023-01-22T01:44:22.147Z,-0.04
2023-01-22T01:45:33.002Z,-0.08
2023-01-22T01:46:40.475Z,0.08
2023-01-22T01:47:42.718Z,0.22
2023-01-22T01:48:47.662Z,0.23
2023-01-22T01:49:53.445Z,0.15
2023-01-22T01:51:04.098Z,0.14
2023-01-22T01:52:12.023Z,0.25
2023-01-22T01:53:14.384Z,0.35
2023-01-22T01:54:17.699Z,0.30
2023-01-22T01:55:27.433Z,0.46
2023-01-22T01:56:34.988Z,-0.02
2023-01-22T01:57:38.674Z,-0.03
2023-01-22T01:58:43.522Z,-0.03
2023-01-22T01:59:47.588Z,0.14
2023-01-22T02:02:08.725Z,0.19
2023-01-22T02:03:11.430Z,0.23
2023-01-22T02:04:14.298Z,0.22
2023-01-22T02:05:20.447Z,0.28
2023-01-22T02:06:23.035Z,0.24
2023-01-22T02:07:25.798Z,0.24
2023-01-22T02:08:28.129Z,0.22
2023-01-22T02:09:32.220Z,0.24
2023-01-22T02:10:34.504Z,-0.04
2023-01-22T02:11:39.444Z,-0.10
2023-01-22T02:12:41.759Z,-0.16
2023-01-22T02:13:51.340Z,-0.18
2023-01-22T02:14:54.466Z,-0.23
2023-01-22T02:15:56.874Z,-0.14
2023-01-22T02:17:11.623Z,-0.26
2023-01-22T02:18:14.124Z,-0.21
2023-01-22T02:19:16.501Z,-0.07
2023-01-22T02:20:21.336Z,0.08
2023-01-22T02:21:38.565Z,0.16
2023-01-22T02:22:40.836Z,0.23
2023-01-22T02:23:43.052Z,0.22
2023-01-22T02:24:45.269Z,0.22
2023-01-22T02:25:47.610Z,0.33
2023-01-22T02:26:49.881Z,0.30
2023-01-22T02:27:55.269Z,0.16
2023-01-22T02:28:58.863Z,0.17
2023-01-22T02:30:05.365Z,0.17
2023-01-22T02:31:07.693Z,0.18
2023-01-22T02:32:11.283Z,0.31
2023-01-22T02:33:13.750Z,0.28
2023-01-22T02:34:18.406Z,0.23
2023-01-22T02:35:22.266Z,0.27
2023-01-22T02:36:25.063Z,0.33
2023-01-22T02:37:27.279Z,0.39
2023-01-22T02:38:31.438Z,0.27
2023-01-22T02:39:34.504Z,0.14
2023-01-22T02:40:49.045Z,0.19
2023-01-22T02:41:54.246Z,0.02
2023-01-22T02:42:57.380Z,0.06
2023-01-22T02:43:59.701Z,0.12
2023-01-22T02:45:02.193Z,0.24
2023-01-22T02:46:05.212Z,0.28
2023-01-22T02:47:07.583Z,0.22
2023-01-22T02:48:10.127Z,0.16
2023-01-22T02:49:12.389Z,0.10
2023-01-22T02:50:14.782Z,0.17
2023-01-22T02:51:17.229Z,0.18
2023-01-22T02:52:21.342Z,0.12
2023-01-22T02:53:23.635Z,0.23
2023-01-22T02:54:25.966Z,0.27
2023-01-22T02:55:28.372Z,0.14
2023-01-22T02:56:34.062Z,0.13
2023-01-22T02:57:36.508Z,0.01
2023-01-22T02:58:39.033Z,0.13
2023-01-22T02:59:41.536Z,0.25
2023-01-22T03:00:46.434Z,0.20
2023-01-22T03:01:49.011Z,0.20
2023-01-22T03:02:51.429Z,0.24
2023-01-22T03:04:10.934Z,0.21
2023-01-22T03:05:13.478Z,0.13
2023-01-22T03:06:16.234Z,0.10
2023-01-22T03:07:18.653Z,0.19
2023-01-22T03:08:21.670Z,0.22
2023-01-22T03:09:23.843Z,0.07
2023-01-22T03:10:26.390Z,0.21
2023-01-22T03:11:30.671Z,0.23
2023-01-22T03:12:59.280Z,0.20
2023-01-22T03:14:20.267Z,0.25
2023-01-22T03:15:41.418Z,0.21
2023-01-22T03:17:02.625Z,0.22
2023-01-22T03:18:23.836Z,0.04
2023-01-22T03:19:45.595Z,0.05
2023-01-22T03:21:11.682Z,0.14
2023-01-22T03:22:15.636Z,0.21
2023-01-22T03:23:17.926Z,0.27
2023-01-22T03:24:20.282Z,0.27
2023-01-22T03:25:22.624Z,0.28
2023-01-22T03:26:28.779Z,0.29
2023-01-22T03:27:31.963Z,0.33
2023-01-22T03:28:35.636Z,0.37
2023-01-22T03:29:38.548Z,0.32
2023-01-22T03:30:42.667Z,0.39
2023-01-22T03:31:48.396Z,0.41
2023-01-22T03:32:50.903Z,0.41
2023-01-22T03:33:54.172Z,0.44
2023-01-22T03:34:56.440Z,0.53
2023-01-22T03:36:02.872Z,0.37
2023-01-22T03:37:07.036Z,0.38
2023-01-22T03:38:10.282Z,0.40
2023-01-22T03:39:13.267Z,0.33
2023-01-22T03:40:16.258Z,0.42
2023-01-22T03:41:19.073Z,0.43
2023-01-22T03:42:24.922Z,0.49
2023-01-22T03:43:27.832Z,0.51
2023-01-22T03:44:30.456Z,0.55
2023-01-22T03:45:34.042Z,0.46
2023-01-22T03:46:36.448Z,0.47
2023-01-22T03:47:39.366Z,0.40
2023-01-22T03:48:56.637Z,0.44
2023-01-22T03:49:59.033Z,0.46
2023-01-22T03:51:09.774Z,0.46
2023-01-22T03:52:12.038Z,0.57
2023-01-22T03:53:15.728Z,0.59
2023-01-22T03:54:18.069Z,0.59
2023-01-22T03:55:20.436Z,0.57
2023-01-22T03:56:23.818Z,0.58
2023-01-22T03:57:27.763Z,0.60
2023-01-22T03:58:31.015Z,0.57
2023-01-22T03:59:33.332Z,0.40
2023-01-22T04:00:35.582Z,0.42
2023-01-22T04:01:41.264Z,0.46
2023-01-22T04:02:44.309Z,0.47
2023-01-22T04:03:55.200Z,0.52
2023-01-22T04:05:00.324Z,0.52
2023-01-22T04:06:05.443Z,0.52
2023-01-22T04:07:08.627Z,0.48
2023-01-22T04:08:10.913Z,0.53
2023-01-22T04:09:16.941Z,0.54
2023-01-22T04:10:23.109Z,0.44
2023-01-22T04:11:25.628Z,0.34
2023-01-22T04:12:28.927Z,0.39
2023-01-22T04:13:33.507Z,0.31
2023-01-22T04:14:36.055Z,0.31
2023-01-22T04:15:39.277Z,0.14
2023-01-22T04:16:52.028Z,0.01
2023-01-22T04:18:26.401Z,0.18
2023-01-22T04:19:40.186Z,0.17
2023-01-22T04:21:01.125Z,0.26
2023-01-22T04:22:20.222Z,0.30
2023-01-22T04:23:25.317Z,0.35
2023-01-22T04:24:28.203Z,0.37
2023-01-22T04:25:30.479Z,0.41
2023-01-22T04:26:32.729Z,0.40
2023-01-22T04:27:37.812Z,0.39
2023-01-22T04:28:40.335Z,0.36
2023-01-22T04:29:43.924Z,0.40
2023-01-22T04:30:47.914Z,0.33
2023-01-22T04:32:04.836Z,0.44
2023-01-22T04:33:25.337Z,0.39
2023-01-22T04:34:40.014Z,0.31
2023-01-22T04:35:55.152Z,0.28
2023-01-22T04:36:57.404Z,0.36
2023-01-22T04:38:02.686Z,0.38
2023-01-22T04:39:04.923Z,0.41
2023-01-22T04:40:09.523Z,0.48
2023-01-22T04:41:12.636Z,0.29
2023-01-22T04:42:14.940Z,0.14
2023-01-22T04:43:17.685Z,0.08
2023-01-22T04:44:20.010Z,0.01
2023-01-22T04:45:22.447Z,-0.05
2023-01-22T04:46:24.873Z,0.11
2023-01-22T04:47:27.873Z,0.23
2023-01-22T04:48:31.121Z,0.32
2023-01-22T04:49:33.564Z,0.36
2023-01-22T04:50:37.091Z,0.21
2023-01-22T04:51:39.331Z,0.26
2023-01-22T04:52:42.067Z,0.33
2023-01-22T04:53:44.333Z,0.37
2023-01-22T04:54:46.982Z,0.40
2023-01-22T04:55:49.537Z,0.35
2023-01-22T04:56:52.744Z,0.33
2023-01-22T04:57:57.431Z,0.40
2023-01-22T04:59:00.371Z,0.41
2023-01-22T05:00:04.862Z,0.44
2023-01-22T05:01:07.209Z,0.40
2023-01-22T05:02:09.581Z,0.28
2023-01-22T05:03:12.615Z,0.28
2023-01-22T05:04:17.304Z,0.28
2023-01-22T05:05:20.491Z,0.27
2023-01-22T05:06:23.369Z,0.36
2023-01-22T05:07:25.652Z,0.45
2023-01-22T05:08:27.871Z,0.49
2023-01-22T05:09:30.245Z,0.51
2023-01-22T05:10:36.294Z,0.64
2023-01-22T05:11:41.010Z,0.48
2023-01-22T05:12:43.187Z,0.44
2023-01-22T05:13:45.466Z,0.30
2023-01-22T05:14:48.743Z,0.41
2023-01-22T05:15:50.978Z,0.46
2023-01-22T05:16:53.360Z,0.42
2023-01-22T05:17:55.777Z,0.31
2023-01-22T05:18:58.012Z,0.32
2023-01-22T05:20:00.626Z,0.32
2023-01-22T05:21:03.329Z,0.45
2023-01-22T05:22:07.724Z,0.56
2023-01-22T05:23:10.186Z,0.58
2023-01-22T05:24:12.569Z,0.61
2023-01-22T05:25:15.211Z,0.56
2023-01-22T05:26:17.986Z,0.47
2023-01-22T05:27:29.104Z,0.48
2023-01-22T05:28:37.896Z,0.62
2023-01-22T05:29:45.026Z,0.63
2023-01-22T05:30:58.894Z,0.61
2023-01-22T05:32:15.575Z,0.53
2023-01-22T05:33:23.070Z,0.33
2023-01-22T05:34:25.352Z,0.29
2023-01-22T05:35:28.058Z,0.32
2023-01-22T05:36:31.646Z,0.37
2023-01-22T05:37:39.460Z,0.32
2023-01-22T05:38:42.397Z,0.20
2023-01-22T05:39:46.728Z,0.37
2023-01-22T05:40:50.711Z,0.48
2023-01-22T05:41:53.238Z,0.60
2023-01-22T05:42:55.706Z,0.64
2023-01-22T05:43:57.942Z,0.69
2023-01-22T05:45:04.195Z,0.64
2023-01-22T05:46:08.644Z,0.75
2023-01-22T05:47:34.923Z,0.72
2023-01-22T05:48:43.902Z,0.65
2023-01-22T05:49:53.688Z,0.68
2023-01-22T05:50:56.948Z,0.69
2023-01-22T05:51:59.352Z,0.76
2023-01-22T05:53:01.632Z,0.78
2023-01-22T05:54:04.407Z,0.81
2023-01-22T05:55:09.618Z,0.76
2023-01-22T05:56:17.479Z,0.74
2023-01-22T05:57:19.867Z,0.78
2023-01-22T05:58:22.102Z,0.76
2023-01-22T05:59:24.862Z,0.74
2023-01-22T06:00:33.482Z,0.75
2023-01-22T06:01:38.474Z,0.71
2023-01-22T06:02:40.862Z,0.74
2023-01-22T06:03:43.516Z,0.75
2023-01-22T06:04:47.024Z,0.83
2023-01-22T06:05:59.620Z,0.85
2023-01-22T06:07:07.362Z,0.86
2023-01-22T06:08:10.184Z,0.84
2023-01-22T06:09:23.403Z,0.87
2023-01-22T06:10:25.852Z,0.93
2023-01-22T06:11:28.725Z,0.93
2023-01-22T06:12:31.657Z,0.94
2023-01-22T06:13:34.928Z,0.90
2023-01-22T06:14:44.902Z,0.84
2023-01-22T06:15:48.148Z,0.88
2023-01-22T06:17:09.526Z,0.93
2023-01-22T06:18:14.674Z,0.89
2023-01-22T06:19:16.991Z,0.74
2023-01-22T06:20:29.671Z,0.60
2023-01-22T06:21:31.899Z,0.70
2023-01-22T06:22:35.325Z,0.76
2023-01-22T06:23:38.416Z,0.82
2023-01-22T06:24:42.117Z,0.76
2023-01-22T06:25:53.203Z,0.84
2023-01-22T06:26:56.088Z,0.81
2023-01-22T06:28:05.338Z,0.77
2023-01-22T06:29:08.759Z,0.79
2023-01-22T06:30:11.539Z,0.83
2023-01-22T06:31:14.241Z,0.81
2023-01-22T06:32:17.073Z,0.83
2023-01-22T06:33:19.315Z,0.81
2023-01-22T06:34:21.582Z,0.78
2023-01-22T06:35:24.089Z,0.81
2023-01-22T06:36:26.667Z,0.86
2023-01-22T06:37:30.059Z,0.86
2023-01-22T06:38:33.573Z,0.78
2023-01-22T06:39:38.675Z,0.72
2023-01-22T06:40:54.296Z,0.54
2023-01-22T06:41:56.738Z,0.47
2023-01-22T06:43:04.183Z,0.50
2023-01-22T06:44:06.943Z,0.56
2023-01-22T06:45:09.511Z,0.53
2023-01-22T06:46:13.434Z,0.41
2023-01-22T06:47:34.919Z,0.44
2023-01-22T06:48:38.243Z,0.46
2023-01-22T06:49:40.471Z,0.51
2023-01-22T06:50:43.828Z,0.47
2023-01-22T06:51:46.036Z,0.50
2023-01-22T06:52:48.861Z,0.51
2023-01-22T06:53:51.487Z,0.51
2023-01-22T06:54:56.038Z,0.53
2023-01-22T06:56:00.752Z,0.58
2023-01-22T06:57:05.565Z,0.59
2023-01-22T06:58:11.008Z,0.64
2023-01-22T06:59:13.201Z,0.55
2023-01-22T07:00:16.093Z,0.46
2023-01-22T07:01:18.933Z,0.42
2023-01-22T07:02:21.302Z,0.28
2023-01-22T07:03:23.580Z,0.20
2023-01-22T07:04:25.899Z,0.21
2023-01-22T07:05:46.518Z,0.16
2023-01-22T07:06:48.860Z,0.10
2023-01-22T07:07:54.312Z,0.16
2023-01-22T07:08:56.909Z,0.12
2023-01-22T07:09:59.164Z,0.09
2023-01-22T07:11:02.197Z,0.09
2023-01-22T07:12:04.416Z,0.03
2023-01-22T07:13:07.884Z,-0.03
2023-01-22T07:14:10.181Z,0.01
2023-01-22T07:15:13.193Z,0.05
2023-01-22T07:16:15.443Z,0.14
2023-01-22T07:17:17.861Z,0.20
2023-01-22T07:18:21.897Z,0.20
2023-01-22T07:19:24.357Z,0.25
2023-01-22T07:20:26.712Z,0.32
2023-01-22T07:21:29.018Z,0.32
2023-01-22T07:22:32.461Z,0.36
2023-01-22T07:23:34.853Z,0.40
2023-01-22T07:24:37.117Z,0.43
2023-01-22T07:25:39.377Z,0.45
2023-01-22T07:26:42.802Z,0.41
2023-01-22T07:27:45.203Z,0.29
2023-01-22T07:28:50.574Z,0.30
2023-01-22T07:29:52.892Z,0.38
2023-01-22T07:30:56.825Z,0.41
2023-01-22T07:31:59.208Z,0.49
2023-01-22T07:33:02.510Z,0.54
2023-01-22T07:34:06.760Z,0.67
2023-01-22T07:35:09.345Z,0.75
2023-01-22T07:36:11.544Z,0.75
2023-01-22T07:37:13.831Z,0.86
2023-01-22T07:38:16.075Z,0.90
2023-01-22T07:39:18.989Z,1.01
2023-01-22T07:40:21.718Z,1.06
2023-01-22T07:41:26.047Z,1.20
2023-01-22T07:42:28.706Z,1.20
2023-01-22T07:43:32.153Z,1.13
2023-01-22T07:44:36.976Z,1.31
2023-01-22T07:45:39.264Z,1.31
2023-01-22T07:46:41.744Z,1.27
2023-01-22T07:47:50.852Z,1.39
2023-01-22T07:48:53.118Z,1.27
2023-01-22T07:49:55.383Z,1.40
2023-01-22T07:51:02.238Z,1.43
2023-01-22T07:52:04.577Z,1.40
2023-01-22T07:53:08.190Z,1.36
2023-01-22T07:54:10.478Z,1.41
2023-01-22T07:55:12.684Z,1.35
2023-01-22T07:56:14.997Z,1.35
2023-01-22T07:57:18.643Z,1.33
2023-01-22T07:58:21.233Z,1.35
2023-01-22T07:59:23.493Z,1.41
2023-01-22T08:00:25.877Z,1.41
2023-01-22T08:01:28.093Z,1.38
2023-01-22T08:02:30.315Z,1.32
2023-01-22T08:03:34.008Z,1.28
2023-01-22T08:04:36.256Z,1.21
2023-01-22T08:05:43.295Z,1.28
2023-01-22T08:06:45.659Z,1.28
2023-01-22T08:07:47.955Z,1.26
2023-01-22T08:08:50.488Z,1.43
2023-01-22T08:09:52.786Z,1.41
2023-01-22T08:10:58.337Z,1.49
2023-01-22T08:12:00.543Z,1.48
2023-01-22T08:13:02.755Z,1.43
2023-01-22T08:14:04.993Z,1.42
2023-01-22T08:15:08.681Z,1.48
2023-01-22T08:16:10.993Z,1.53
2023-01-22T08:17:13.279Z,1.57
2023-01-22T08:18:16.920Z,1.61
2023-01-22T08:19:20.274Z,1.68
2023-01-22T08:20:23.072Z,1.67
2023-01-22T08:21:25.275Z,1.66
2023-01-22T08:22:27.496Z,1.72
2023-01-22T08:23:29.758Z,1.59
2023-01-22T08:24:32.048Z,1.55
2023-01-22T08:25:34.278Z,1.50
2023-01-22T08:26:36.550Z,1.56
2023-01-22T08:27:38.921Z,1.58
2023-01-22T08:28:41.221Z,1.62
2023-01-22T08:29:43.457Z,1.74
2023-01-22T08:30:46.958Z,1.87
2023-01-22T08:31:50.372Z,1.86
2023-01-22T08:32:53.471Z,1.88
2023-01-22T08:33:57.660Z,1.80
2023-01-22T08:34:59.862Z,1.78
2023-01-22T08:36:02.094Z,1.78
2023-01-22T08:37:04.274Z,1.77
2023-01-22T08:38:06.750Z,1.70
2023-01-22T08:39:10.644Z,1.80
2023-01-22T08:40:13.829Z,1.80
2023-01-22T08:41:16.033Z,1.83
2023-01-22T08:42:18.321Z,1.92
2023-01-22T08:43:20.575Z,1.93
2023-01-22T08:44:23.527Z,1.94
2023-01-22T08:45:25.838Z,1.85
2023-01-22T08:46:28.106Z,1.96
2023-01-22T08:47:30.303Z,1.90
2023-01-22T08:48:32.638Z,1.79
2023-01-22T08:49:35.001Z,1.77
2023-01-22T08:50:37.239Z,1.78
2023-01-22T08:51:39.501Z,1.77
2023-01-22T08:52:41.867Z,1.74
2023-01-22T08:53:44.285Z,1.75
2023-01-22T08:54:46.560Z,1.80
2023-01-22T08:55:50.073Z,1.88
2023-01-22T08:56:52.371Z,1.87
2023-01-22T08:57:58.223Z,1.84
2023-01-22T08:59:06.255Z,1.76
2023-01-22T09:00:09.065Z,1.73
2023-01-22T09:01:16.746Z,1.80
2023-01-22T09:02:19.156Z,1.80
2023-01-22T09:03:21.989Z,1.84
2023-01-22T09:04:24.315Z,1.79
2023-01-22T09:05:27.585Z,1.81
2023-01-22T09:06:29.940Z,1.79
2023-01-22T09:07:32.164Z,1.76
2023-01-22T09:08:34.366Z,1.68
2023-01-22T09:09:36.808Z,1.62
2023-01-22T09:10:39.535Z,1.55
2023-01-22T09:11:41.887Z,1.66
2023-01-22T09:12:44.191Z,1.74
2023-01-22T09:13:46.454Z,1.70
2023-01-22T09:14:48.719Z,1.74
2023-01-22T09:15:50.942Z,1.84
2023-01-22T09:16:53.534Z,1.70
2023-01-22T09:17:55.895Z,1.66
2023-01-22T09:18:58.114Z,1.64
2023-01-22T09:20:00.390Z,1.63
2023-01-22T09:21:04.194Z,1.65
2023-01-22T09:22:07.533Z,1.56
2023-01-22T09:23:09.720Z,1.57
2023-01-22T09:24:11.976Z,1.60
2023-01-22T09:25:14.710Z,1.69
2023-01-22T09:26:16.915Z,1.62
2023-01-22T09:27:19.124Z,1.63
2023-01-22T09:28:21.350Z,1.62
2023-01-22T09:29:23.593Z,1.68
2023-01-22T09:30:27.751Z,1.69
2023-01-22T09:31:30.016Z,1.72
2023-01-22T09:32:32.490Z,1.63
2023-01-22T09:33:34.764Z,1.57
2023-01-22T09:34:37.044Z,1.61
2023-01-22T09:35:39.281Z,1.63
2023-01-22T09:36:42.891Z,1.67
2023-01-22T09:37:45.054Z,1.63
2023-01-22T09:38:47.572Z,1.68
2023-01-22T09:39:50.417Z,1.83
2023-01-22T09:41:01.902Z,1.84
2023-01-22T09:42:06.467Z,1.83
2023-01-22T09:43:46.149Z,1.75
2023-01-22T09:44:53.599Z,1.69
2023-01-22T09:45:59.915Z,1.74
2023-01-22T09:47:11.452Z,1.84
2023-01-22T09:48:17.934Z,1.85
2023-01-22T09:49:25.056Z,1.85
2023-01-22T09:50:30.328Z,1.87
2023-01-22T09:51:32.601Z,1.77
2023-01-22T09:52:38.073Z,1.76
2023-01-22T09:53:41.391Z,1.75
2023-01-22T09:54:43.831Z,1.74
2023-01-22T09:55:49.321Z,1.83
2023-01-22T09:56:53.885Z,1.86
2023-01-22T09:57:59.604Z,1.99
2023-01-22T09:59:05.542Z,2.01
2023-01-22T10:00:17.001Z,1.88
2023-01-22T10:01:20.901Z,1.94
2023-01-22T10:02:37.047Z,2.02
2023-01-22T10:03:43.715Z,2.06
2023-01-22T10:04:48.231Z,2.02
2023-01-22T10:05:56.182Z,1.96
2023-01-22T10:07:00.423Z,2.01
2023-01-22T10:08:10.188Z,2.06
2023-01-22T10:09:15.981Z,1.99
2023-01-22T10:10:21.678Z,2.00
2023-01-22T10:11:24.671Z,2.02
2023-01-22T10:12:48.418Z,2.05
2023-01-22T10:13:58.295Z,2.04
2023-01-22T10:15:00.614Z,2.03
2023-01-22T10:16:04.200Z,2.08
2023-01-22T10:17:17.291Z,2.16
2023-01-22T10:18:27.508Z,2.28
2023-01-22T10:19:43.661Z,2.24
2023-01-22T10:20:46.157Z,2.30
2023-01-22T10:21:58.708Z,2.35
2023-01-22T10:23:15.326Z,2.38
2023-01-22T10:24:17.587Z,2.44
2023-01-22T10:25:19.819Z,2.40
2023-01-22T10:26:46.389Z,2.34
2023-01-22T10:27:59.407Z,2.47
2023-01-22T10:29:11.585Z,2.39
2023-01-22T10:30:25.435Z,2.38
2023-01-22T10:31:34.232Z,2.48
2023-01-22T10:32:36.656Z,2.38
2023-01-22T10:33:39.050Z,2.39
2023-01-22T10:34:41.614Z,2.42
2023-01-22T10:35:47.672Z,2.49
2023-01-22T10:36:51.634Z,2.48
2023-01-22T10:37:56.231Z,2.52
2023-01-22T10:39:05.333Z,2.27
2023-01-22T10:40:28.874Z,2.37
2023-01-22T10:41:31.969Z,2.50
2023-01-22T10:42:34.184Z,2.64
2023-01-22T10:43:38.923Z,2.73
2023-01-22T10:44:41.392Z,2.78
2023-01-22T10:45:54.964Z,2.96
2023-01-22T10:47:08.335Z,2.86
2023-01-22T10:48:15.693Z,2.84
2023-01-22T10:49:21.674Z,2.76
2023-01-22T10:50:24.045Z,2.79
2023-01-22T10:51:32.596Z,2.85
2023-01-22T10:52:55.464Z,2.85
2023-01-22T10:53:58.697Z,2.82
2023-01-22T10:55:01.147Z,2.94
2023-01-22T10:56:12.470Z,2.90
2023-01-22T10:57:21.329Z,2.93
2023-01-22T10:58:27.549Z,2.89
2023-01-22T10:59:30.638Z,2.91
2023-01-22T11:00:50.261Z,2.85
2023-01-22T11:02:01.800Z,2.96
2023-01-22T11:03:28.831Z,2.92
2023-01-22T11:04:33.639Z,3.02
2023-01-22T11:05:37.051Z,2.99
2023-01-22T11:06:47.355Z,2.90
2023-01-22T11:07:59.591Z,2.99
2023-01-22T11:09:32.573Z,3.01
2023-01-22T11:10:46.510Z,2.69
2023-01-22T11:11:57.728Z,2.87
2023-01-22T11:13:11.686Z,3.02
2023-01-22T11:14:22.320Z,2.73
2023-01-22T11:15:40.675Z,2.83
2023-01-22T11:16:44.968Z,2.86
2023-01-22T11:17:51.878Z,2.94
2023-01-22T11:19:32.641Z,3.02
2023-01-22T11:20:49.633Z,3.08
2023-01-22T11:21:56.100Z,3.08
2023-01-22T11:23:10.198Z,3.13
2023-01-22T11:24:21.740Z,3.13
2023-01-22T11:25:24.182Z,2.74
2023-01-22T11:26:35.108Z,2.81
2023-01-22T11:27:53.916Z,2.95
2023-01-22T11:29:04.685Z,3.12
2023-01-22T11:30:48.707Z,3.16
2023-01-22T11:31:56.696Z,3.11
2023-01-22T11:33:18.264Z,2.94
2023-01-22T11:34:45.217Z,2.24
2023-01-22T11:36:09.871Z,2.37
2023-01-22T11:37:21.454Z,2.39
2023-01-22T11:38:53.881Z,2.63
2023-01-22T11:40:03.316Z,2.99
2023-01-22T11:41:20.227Z,3.12
2023-01-22T11:43:00.845Z,3.39
2023-01-22T11:44:20.726Z,3.30
2023-01-22T11:45:37.366Z,2.63
2023-01-22T11:47:19.787Z,2.64
2023-01-22T11:48:47.554Z,2.91
2023-01-22T11:50:12.306Z,3.13
2023-01-22T11:51:32.431Z,3.39
2023-01-22T11:53:15.874Z,3.49
2023-01-22T11:54:36.638Z,3.63
2023-01-22T11:56:23.391Z,3.72
2023-01-22T11:57:32.546Z,3.71
2023-01-22T11:58:59.681Z,2.89
2023-01-22T12:00:24.468Z,2.64
2023-01-22T12:01:43.546Z,2.86
2023-01-22T12:03:09.929Z,3.13
2023-01-22T12:04:33.701Z,3.26
2023-01-22T12:05:44.923Z,3.25
2023-01-22T12:06:59.005Z,3.28
2023-01-22T12:08:03.994Z,3.37
2023-01-22T12:09:38.924Z,3.01
2023-01-22T12:11:04.314Z,2.48
2023-01-22T12:12:20.035Z,2.72
2023-01-22T12:13:46.656Z,2.95
2023-01-22T12:14:53.287Z,3.27
2023-01-22T12:16:17.217Z,3.36
2023-01-22T12:17:34.442Z,3.41
2023-01-22T12:18:45.692Z,3.51
2023-01-22T12:20:24.730Z,3.61
2023-01-22T12:22:08.025Z,3.66
2023-01-22T12:23:33.759Z,3.67
2023-01-22T12:24:44.436Z,3.56
2023-01-22T12:26:14.922Z,3.52
2023-01-22T12:27:26.385Z,3.61
2023-01-22T12:28:32.274Z,3.47
2023-01-22T12:29:40.337Z,3.32
2023-01-22T12:30:55.169Z,3.55
2023-01-22T12:32:08.999Z,3.70
2023-01-22T12:33:20.215Z,3.68
2023-01-22T12:34:37.586Z,3.75
2023-01-22T12:35:40.587Z,3.86
2023-01-22T12:36:44.855Z,3.86
2023-01-22T12:38:06.179Z,3.91
2023-01-22T12:39:30.359Z,3.94
2023-01-22T12:40:58.439Z,4.05
2023-01-22T12:42:13.616Z,3.92
2023-01-22T12:43:23.025Z,3.92
2023-01-22T12:44:45.980Z,3.94
2023-01-22T12:46:05.709Z,3.87
2023-01-22T12:47:26.921Z,4.05
2023-01-22T12:48:55.660Z,3.88
2023-01-22T12:49:57.896Z,3.97
2023-01-22T12:51:00.148Z,3.95
2023-01-22T12:52:02.541Z,3.83
2023-01-22T12:53:20.091Z,3.88
2023-01-22T12:54:22.365Z,3.79
2023-01-22T12:55:38.024Z,3.76
2023-01-22T12:56:40.393Z,3.83
2023-01-22T12:57:42.602Z,3.76
2023-01-22T12:58:56.111Z,3.78
2023-01-22T13:00:12.122Z,3.77
2023-01-22T13:01:14.285Z,3.81
2023-01-22T13:02:30.372Z,3.78
2023-01-22T13:03:33.562Z,3.79
2023-01-22T13:04:35.837Z,3.66
2023-01-22T13:05:40.683Z,3.69
2023-01-22T13:06:43.560Z,3.57
2023-01-22T13:07:50.054Z,3.63
2023-01-22T13:08:52.324Z,3.56
2023-01-22T13:10:04.843Z,3.50
2023-01-22T13:11:12.451Z,3.47
2023-01-22T13:12:29.442Z,3.44
2023-01-22T13:13:37.377Z,3.49
2023-01-22T13:14:42.756Z,3.50
2023-01-22T13:15:52.796Z,3.55
2023-01-22T13:17:03.370Z,3.48
2023-01-22T13:18:18.928Z,3.24
2023-01-22T13:19:25.979Z,3.09
2023-01-22T13:20:30.667Z,3.22
2023-01-22T13:21:34.316Z,3.37
2023-01-22T13:22:36.787Z,3.42
2023-01-22T13:23:45.292Z,3.44
2023-01-22T13:24:57.753Z,3.53
2023-01-22T13:26:00.178Z,3.61
2023-01-22T13:27:03.309Z,3.30
2023-01-22T13:28:06.044Z,3.58
2023-01-22T13:29:32.838Z,3.69
2023-01-22T13:30:35.326Z,3.68
2023-01-22T13:31:38.401Z,3.69
2023-01-22T13:32:40.955Z,3.53
2023-01-22T13:34:08.636Z,3.41
2023-01-22T13:35:15.334Z,3.17
2023-01-22T13:36:17.721Z,3.11
2023-01-22T13:37:25.116Z,3.13
2023-01-22T13:38:30.084Z,3.21
2023-01-22T13:39:33.453Z,3.11
2023-01-22T13:40:50.527Z,2.92
2023-01-22T13:41:58.640Z,2.71
2023-01-22T13:43:00.968Z,2.63
2023-01-22T13:44:05.007Z,2.62
2023-01-22T13:45:16.475Z,2.71
2023-01-22T13:46:19.055Z,2.80
2023-01-22T13:47:35.341Z,2.71
2023-01-22T13:48:38.381Z,2.72
2023-01-22T13:49:42.911Z,2.84
2023-01-22T13:51:06.634Z,2.80
2023-01-22T13:52:18.714Z,2.88
2023-01-22T13:53:28.556Z,2.91
2023-01-22T13:54:35.607Z,3.03
2023-01-22T13:55:37.952Z,3.12
2023-01-22T13:56:40.618Z,3.30
2023-01-22T13:57:51.475Z,3.26
2023-01-22T13:59:15.598Z,3.35
2023-01-22T14:00:31.770Z,3.50
2023-01-22T14:01:36.070Z,3.56
2023-01-22T14:02:38.366Z,3.57
2023-01-22T14:03:44.802Z,3.51
2023-01-22T14:04:48.907Z,3.59
2023-01-22T14:06:14.786Z,3.67
2023-01-22T14:07:24.118Z,3.53
2023-01-22T14:08:29.422Z,3.40
2023-01-22T14:09:34.716Z,3.15
2023-01-22T14:10:38.061Z,3.21
2023-01-22T14:11:41.103Z,3.35
2023-01-22T14:12:43.357Z,3.37
2023-01-22T14:13:48.906Z,3.41
2023-01-22T14:14:51.654Z,3.40
2023-01-22T14:15:56.734Z,3.40
2023-01-22T14:16:59.572Z,3.39
2023-01-22T14:18:14.598Z,3.31
2023-01-22T14:19:16.913Z,3.29
2023-01-22T14:20:19.953Z,3.23
2023-01-22T14:21:25.276Z,3.31
2023-01-22T14:22:27.730Z,2.98
2023-01-22T14:23:29.940Z,2.95
2023-01-22T14:24:32.164Z,2.83
2023-01-22T14:25:48.445Z,2.65
2023-01-22T14:26:50.971Z,2.62
2023-01-22T14:27:53.423Z,2.66
2023-01-22T14:28:55.963Z,2.68
2023-01-22T14:29:58.381Z,2.73
2023-01-22T14:31:01.153Z,2.82
2023-01-22T14:32:03.542Z,2.96
2023-01-22T14:33:06.270Z,3.02
2023-01-22T14:34:10.940Z,3.04
2023-01-22T14:35:26.289Z,2.86
2023-01-22T14:36:28.539Z,2.85
2023-01-22T14:37:30.817Z,2.91
2023-01-22T14:38:37.323Z,3.01
2023-01-22T14:39:39.628Z,3.12
2023-01-22T14:40:42.494Z,3.22
2023-01-22T14:41:45.068Z,3.32
2023-01-22T14:42:47.513Z,3.28
2023-01-22T14:43:49.947Z,3.19
2023-01-22T14:44:52.203Z,3.18
2023-01-22T14:45:55.079Z,3.17
2023-01-22T14:46:57.550Z,3.18
2023-01-22T14:48:00.641Z,3.07
2023-01-22T14:49:05.162Z,3.12
2023-01-22T14:50:11.460Z,3.23
2023-01-22T14:51:14.018Z,3.21
2023-01-22T14:52:16.386Z,3.13
2023-01-22T14:53:19.476Z,3.15
2023-01-22T14:54:21.861Z,3.16
2023-01-22T14:55:24.850Z,3.24
2023-01-22T14:56:27.224Z,3.30
2023-01-22T14:57:29.522Z,3.38
2023-01-22T14:58:31.880Z,3.35
2023-01-22T14:59:41.158Z,3.34
2023-01-22T15:00:46.500Z,3.30
2023-01-22T15:01:48.837Z,3.30
2023-01-22T15:02:55.461Z,3.24
2023-01-22T15:03:57.725Z,3.23
2023-01-22T15:05:00.025Z,3.23
2023-01-22T15:06:02.287Z,3.17
2023-01-22T15:07:04.579Z,3.08
2023-01-22T15:08:09.045Z,3.05
2023-01-22T15:09:11.552Z,2.98
2023-01-22T15:10:14.254Z,3.04
2023-01-22T15:11:16.577Z,2.93
2023-01-22T15:12:18.927Z,2.78
2023-01-22T15:13:21.257Z,2.90
2023-01-22T15:14:24.155Z,2.90
2023-01-22T15:15:28.310Z,3.00
2023-01-22T15:16:30.942Z,3.02
2023-01-22T15:17:36.283Z,3.07
2023-01-22T15:18:39.411Z,3.10
2023-01-22T15:19:42.005Z,2.99
2023-01-22T15:20:45.276Z,2.84
2023-01-22T15:21:47.874Z,2.85